Time;durP1;ratioP1;P1;durP2;ratioP2;P2;SDS_P1;SDS_P2;PMS_P1;PMS_P2;Temp;Humidity;BMP_temperature;BMP_pressure;BME280_temperature;BME280_humidity;BME280_pressure;Samples;Min_cycle;Max_cycle;Signal;HPM_P1;HPM_P2
2021/11/23 00:00:43;;;;;;;0.10;0.10;;;0.90;99.90;;;;;;4995657;28;20077;-64
2021/11/23 00:03:08;;;;;;;0.10;0.10;;;0.90;99.90;;;;;;4995148;28;20470;-64
2021/11/23 00:05:35;;;;;;;3.92;3.55;;;0.90;99.90;;;;;;4993653;28;20044;-63
2021/11/23 00:08:01;;;;;;;0.10;0.10;;;0.90;99.90;;;;;;4995115;28;20057;-62
2021/11/23 00:10:27;;;;;;;0.00;0.00;;;0.90;99.90;;;;;;4995078;28;20482;-63
2021/11/23 00:12:53;;;;;;;0.10;0.10;;;0.80;99.90;;;;;;4994996;28;20088;-64
2021/11/23 00:15:18;;;;;;;0.10;0.10;;;0.80;99.90;;;;;;4994916;28;20487;-64
2021/11/23 00:17:44;;;;;;;0.28;0.28;;;0.80;99.90;;;;;;4993804;28;20050;-64
2021/11/23 00:20:10;;;;;;;0.10;0.10;;;0.80;99.90;;;;;;4993765;28;20038;-64
2021/11/23 00:22:36;;;;;;;0.20;0.20;;;0.70;99.90;;;;;;4994871;28;20042;-64
2021/11/23 00:25:05;;;;;;;0.10;0.10;;;0.80;99.90;;;;;;4994291;28;20030;-64
2021/11/23 00:27:31;;;;;;;0.10;0.10;;;0.80;99.90;;;;;;4994402;28;20399;-63
2021/11/23 00:29:57;;;;;;;0.10;0.10;;;0.80;99.90;;;;;;4993149;28;20030;-63
2021/11/23 00:32:23;;;;;;;0.10;0.10;;;0.80;99.90;;;;;;4994391;28;20037;-63
2021/11/23 00:34:49;;;;;;;0.10;0.10;;;0.80;99.90;;;;;;4993182;28;20105;-63
2021/11/23 00:37:15;;;;;;;0.10;0.10;;;0.80;99.90;;;;;;4994502;28;20026;-63
2021/11/23 00:39:40;;;;;;;0.43;0.43;;;0.80;99.90;;;;;;4994347;28;20030;-63
2021/11/23 00:42:07;;;;;;;0.10;0.10;;;0.80;99.90;;;;;;4994374;28;20084;-64
2021/11/23 00:44:32;;;;;;;0.10;0.10;;;0.80;99.90;;;;;;4994070;28;20042;-64
2021/11/23 00:46:58;;;;;;;0.47;0.47;;;0.80;99.90;;;;;;4994213;28;20125;-63
2021/11/23 00:49:24;;;;;;;0.30;0.30;;;0.80;99.90;;;;;;4992941;28;20027;-64
2021/11/23 00:51:50;;;;;;;0.10;0.10;;;0.80;99.90;;;;;;4994153;28;20056;-64
2021/11/23 00:54:16;;;;;;;0.10;0.10;;;0.80;99.90;;;;;;4993973;28;20041;-64
2021/11/23 00:56:43;;;;;;;0.10;0.10;;;0.70;99.90;;;;;;4993885;28;20041;-63
2021/11/23 00:59:09;;;;;;;0.10;0.10;;;0.80;99.90;;;;;;4993862;28;20030;-64
2021/11/23 01:01:34;;;;;;;0.10;0.10;;;0.80;99.90;;;;;;4992652;28;20026;-64
2021/11/23 01:04:00;;;;;;;0.20;0.20;;;0.80;99.90;;;;;;4993813;28;20044;-62
2021/11/23 01:06:26;;;;;;;0.10;0.10;;;0.90;99.90;;;;;;4993599;28;20035;-63
2021/11/23 01:08:52;;;;;;;0.10;0.10;;;0.80;99.90;;;;;;4993775;28;20041;-63
2021/11/23 01:11:20;;;;;;;0.10;0.10;;;0.80;99.90;;;;;;4992432;28;20027;-63
2021/11/23 01:13:47;;;;;;;0.10;0.10;;;0.80;99.90;;;;;;4992504;28;20414;-63
2021/11/23 01:16:15;;;;;;;0.10;0.10;;;0.80;99.90;;;;;;4993765;28;20045;-63
2021/11/23 01:18:42;;;;;;;0.30;0.30;;;0.70;99.90;;;;;;4992455;28;20026;-63
2021/11/23 01:21:09;;;;;;;0.30;0.30;;;0.70;99.90;;;;;;4993793;28;20475;-62
2021/11/23 01:23:36;;;;;;;0.10;0.10;;;0.60;99.90;;;;;;4992644;28;20035;-62
2021/11/23 01:26:03;;;;;;;0.10;0.10;;;0.50;99.90;;;;;;4993705;28;20487;-62
2021/11/23 01:28:30;;;;;;;0.10;0.10;;;0.60;99.90;;;;;;4993309;28;20391;-63
2021/11/23 01:30:56;;;;;;;0.10;0.10;;;0.60;99.90;;;;;;4992545;28;20442;-64
2021/11/23 01:33:22;;;;;;;0.10;0.10;;;0.50;99.90;;;;;;4992330;28;20548;-63
2021/11/23 01:35:48;;;;;;;0.10;0.10;;;0.50;99.90;;;;;;4993585;28;20033;-64
2021/11/23 01:38:15;;;;;;;0.25;0.25;;;0.50;99.90;;;;;;4991961;28;20038;-64
2021/11/23 01:40:43;;;;;;;0.10;0.10;;;0.40;99.90;;;;;;4992178;28;20085;-64
2021/11/23 01:43:09;;;;;;;0.65;0.65;;;0.40;99.90;;;;;;4991714;28;20058;-64
2021/11/23 01:45:40;;;;;;;0.10;0.10;;;0.40;99.90;;;;;;4993057;28;20484;-64
2021/11/23 01:48:08;;;;;;;0.38;0.38;;;0.30;99.90;;;;;;4993389;28;20042;-64
2021/11/23 01:50:35;;;;;;;0.75;0.65;;;0.30;99.90;;;;;;4992237;28;20038;-64
2021/11/23 01:53:04;;;;;;;0.10;0.10;;;0.30;99.90;;;;;;4991915;28;20070;-63
2021/11/23 01:55:36;;;;;;;0.28;0.28;;;0.30;99.90;;;;;;4993250;28;20085;-64
2021/11/23 01:58:05;;;;;;;0.10;0.10;;;0.30;99.90;;;;;;4992062;28;20065;-62
2021/11/23 02:00:33;;;;;;;0.40;0.40;;;0.30;99.90;;;;;;4993261;28;20149;-62
2021/11/23 02:03:00;;;;;;;0.10;0.10;;;0.30;99.90;;;;;;4991741;28;20450;-62
2021/11/23 02:05:26;;;;;;;0.10;0.10;;;0.30;99.90;;;;;;4993035;28;20441;-63
2021/11/23 02:07:52;;;;;;;0.10;0.10;;;0.30;99.90;;;;;;4991630;28;20423;-62
2021/11/23 02:10:18;;;;;;;0.10;0.10;;;0.30;99.90;;;;;;4991505;28;20042;-63
2021/11/23 02:12:44;;;;;;;0.10;0.10;;;0.30;99.90;;;;;;4993197;28;20026;-62
2021/11/23 02:15:11;;;;;;;0.47;0.47;;;0.30;99.90;;;;;;4991553;28;20030;-63
2021/11/23 02:17:38;;;;;;;0.20;0.20;;;0.30;99.90;;;;;;4975414;28;20038;-63
2021/11/23 02:20:11;;;;;;;0.10;0.10;;;0.30;99.90;;;;;;4975537;28;20030;-63
2021/11/23 02:22:37;;;;;;;0.20;0.20;;;0.20;99.90;;;;;;4993100;28;20192;-63
2021/11/23 02:25:04;;;;;;;1.27;0.90;;;0.20;99.90;;;;;;4991525;28;20519;-63
2021/11/23 02:27:30;;;;;;;0.55;0.52;;;0.10;99.90;;;;;;4992926;28;20041;-64
2021/11/23 02:29:56;;;;;;;4.55;3.72;;;0.10;99.90;;;;;;4993072;28;20030;-62
2021/11/23 02:32:21;;;;;;;0.10;0.10;;;0.10;99.90;;;;;;4992541;28;20038;-62
2021/11/23 02:34:47;;;;;;;0.20;0.20;;;0.10;99.90;;;;;;4992651;28;20403;-63
2021/11/23 02:37:13;;;;;;;0.20;0.20;;;0.10;99.90;;;;;;4991337;28;20109;-62
2021/11/23 02:39:39;;;;;;;0.20;0.20;;;0.00;99.90;;;;;;4992644;28;20045;-62
2021/11/23 02:42:05;;;;;;;0.10;0.10;;;0.00;99.90;;;;;;4991654;28;20102;-62
2021/11/23 02:44:31;;;;;;;0.10;0.10;;;0.00;99.90;;;;;;4992248;28;20057;-63
2021/11/23 02:46:58;;;;;;;0.20;0.20;;;-0.10;99.90;;;;;;4992600;28;20045;-63
2021/11/23 02:49:24;;;;;;;0.10;0.10;;;-0.10;99.90;;;;;;4992489;28;20498;-63
2021/11/23 02:51:50;;;;;;;0.22;0.22;;;0.00;99.90;;;;;;4992868;28;20118;-63
2021/11/23 02:54:16;;;;;;;0.10;0.10;;;-0.10;99.90;;;;;;4991520;28;20033;-63
2021/11/23 02:56:42;;;;;;;0.10;0.10;;;-0.10;99.90;;;;;;4991618;28;20030;-63
2021/11/23 02:59:07;;;;;;;0.10;0.10;;;-0.20;99.90;;;;;;4991328;28;20027;-63
2021/11/23 03:01:33;;;;;;;0.10;0.10;;;-0.20;99.90;;;;;;4992573;28;20034;-63
2021/11/23 03:03:59;;;;;;;0.88;0.88;;;-0.20;99.90;;;;;;4992397;28;20148;-63
2021/11/23 03:06:25;;;;;;;0.10;0.10;;;-0.20;99.90;;;;;;4992578;28;20076;-63
2021/11/23 03:08:54;;;;;;;0.10;0.10;;;-0.20;99.90;;;;;;4992551;28;20041;-63
2021/11/23 03:11:23;;;;;;;0.10;0.10;;;-0.30;99.90;;;;;;4992324;28;20107;-63
2021/11/23 03:13:49;;;;;;;0.93;0.93;;;-0.30;99.90;;;;;;4991542;28;20035;-63
2021/11/23 03:16:15;;;;;;;0.15;0.15;;;-0.30;99.90;;;;;;4992455;28;20038;-62
2021/11/23 03:18:41;;;;;;;0.20;0.20;;;-0.30;99.90;;;;;;4992635;28;20022;-63
2021/11/23 03:21:07;;;;;;;0.10;0.10;;;-0.30;99.90;;;;;;4993884;28;20045;-62
2021/11/23 03:23:33;;;;;;;0.00;0.00;;;-0.30;99.90;;;;;;4995690;28;20031;-63
2021/11/23 03:25:59;;;;;;;0.10;0.10;;;-0.30;99.90;;;;;;4995901;28;20045;-62
2021/11/23 03:28:25;;;;;;;0.75;0.75;;;-0.30;99.90;;;;;;4994674;28;20037;-63
2021/11/23 03:30:51;;;;;;;0.10;0.10;;;-0.30;99.90;;;;;;4994522;28;20117;-63
2021/11/23 03:33:19;;;;;;;0.20;0.20;;;-0.40;99.90;;;;;;4994275;28;20033;-64
2021/11/23 03:35:45;;;;;;;0.10;0.10;;;-0.40;99.90;;;;;;4995613;28;20106;-63
2021/11/23 03:38:14;;;;;;;0.10;0.10;;;-0.40;99.90;;;;;;4995603;28;20406;-63
2021/11/23 03:40:42;;;;;;;0.10;0.10;;;-0.30;99.90;;;;;;4995780;28;20027;-63
2021/11/23 03:43:09;;;;;;;1.08;1.08;;;-0.30;99.90;;;;;;4995436;28;20046;-63
2021/11/23 03:45:36;;;;;;;0.10;0.10;;;-0.30;99.90;;;;;;4995296;28;20030;-63
2021/11/23 03:48:03;;;;;;;4.30;3.05;;;-0.30;99.90;;;;;;4995192;28;20484;-63
2021/11/23 03:50:30;;;;;;;0.10;0.10;;;-0.40;99.90;;;;;;4995200;28;20116;-63
2021/11/23 03:52:58;;;;;;;0.10;0.10;;;-0.40;99.90;;;;;;4995313;28;20034;-63
2021/11/23 03:55:26;;;;;;;0.10;0.10;;;-0.50;99.90;;;;;;4993964;28;20035;-63
2021/11/23 03:57:52;;;;;;;1.13;1.00;;;-0.50;99.90;;;;;;4995441;28;20027;-63
2021/11/23 04:00:22;;;;;;;0.10;0.10;;;-0.50;99.90;;;;;;4993807;28;20042;-63
2021/11/23 04:02:50;;;;;;;0.10;0.10;;;-0.40;99.90;;;;;;4995075;28;20041;-63
2021/11/23 04:05:17;;;;;;;0.10;0.10;;;-0.40;99.90;;;;;;4993582;28;20027;-63
2021/11/23 04:07:43;;;;;;;0.10;0.10;;;-0.30;99.90;;;;;;4994013;28;20039;-63
2021/11/23 04:10:11;;;;;;;1.17;1.17;;;-0.20;99.90;;;;;;4994763;28;20109;-63
2021/11/23 04:12:37;;;;;;;0.10;0.10;;;-0.30;99.90;;;;;;4993626;28;20066;-63
2021/11/23 04:15:07;;;;;;;0.20;0.20;;;-0.20;99.90;;;;;;4995085;28;20037;-63
2021/11/23 04:17:33;;;;;;;0.10;0.10;;;-0.20;99.90;;;;;;4994780;28;20042;-63
2021/11/23 04:19:59;;;;;;;0.10;0.10;;;-0.20;99.90;;;;;;4993549;28;20022;-63
2021/11/23 04:22:25;;;;;;;0.10;0.10;;;-0.30;99.90;;;;;;4993333;28;20036;-63
2021/11/23 04:24:51;;;;;;;0.10;0.10;;;-0.20;99.90;;;;;;4993645;28;20042;-63
2021/11/23 04:27:17;;;;;;;0.10;0.10;;;-0.30;99.90;;;;;;4994513;28;20395;-63
2021/11/23 04:29:43;;;;;;;0.20;0.20;;;-0.30;99.90;;;;;;4994782;28;20038;-63
2021/11/23 04:32:08;;;;;;;0.10;0.10;;;-0.40;99.90;;;;;;4992864;28;20038;-63
2021/11/23 04:34:34;;;;;;;0.10;0.10;;;-0.40;99.90;;;;;;4993047;28;20100;-63
2021/11/23 04:37:00;;;;;;;0.10;0.10;;;-0.40;99.90;;;;;;4994450;28;20030;-63
2021/11/23 04:39:26;;;;;;;0.10;0.10;;;-0.50;99.90;;;;;;4993033;28;20026;-63
2021/11/23 04:41:52;;;;;;;0.10;0.10;;;-0.50;99.90;;;;;;4994300;28;20498;-63
2021/11/23 04:44:18;;;;;;;0.10;0.10;;;-0.50;99.90;;;;;;4994064;28;20108;-63
2021/11/23 04:46:43;;;;;;;0.10;0.10;;;-0.50;99.90;;;;;;4994026;28;20390;-63
2021/11/23 04:49:09;;;;;;;0.35;0.35;;;-0.50;99.90;;;;;;4994406;28;20181;-63
2021/11/23 04:51:35;;;;;;;0.32;0.32;;;-0.50;99.90;;;;;;4993992;28;20031;-63
2021/11/23 04:54:02;;;;;;;0.57;0.57;;;-0.50;99.90;;;;;;4994358;28;20030;-63
2021/11/23 04:56:28;;;;;;;0.10;0.10;;;-0.50;99.90;;;;;;4992845;28;20030;-64
2021/11/23 04:58:54;;;;;;;0.10;0.10;;;-0.60;99.90;;;;;;4994203;28;20030;-64
2021/11/23 05:01:20;;;;;;;0.10;0.10;;;-0.60;99.90;;;;;;4993725;28;20044;-63
2021/11/23 05:03:46;;;;;;;0.10;0.10;;;-0.60;99.90;;;;;;4993856;28;20022;-62
2021/11/23 05:06:12;;;;;;;0.10;0.10;;;-0.70;99.90;;;;;;4993603;28;20080;-62
2021/11/23 05:08:37;;;;;;;0.10;0.10;;;-0.60;99.90;;;;;;4993400;28;20088;-62
2021/11/23 05:11:03;;;;;;;0.10;0.10;;;-0.70;99.90;;;;;;4994191;28;20121;-63
2021/11/23 05:13:29;;;;;;;0.10;0.10;;;-0.70;99.90;;;;;;5008168;28;20533;-63
2021/11/23 05:15:55;;;;;;;0.10;0.10;;;-0.70;99.90;;;;;;5013550;28;20038;-62
2021/11/23 05:18:22;;;;;;;0.32;0.32;;;-0.70;99.90;;;;;;5013032;28;20030;-63
2021/11/23 05:20:47;;;;;;;1.50;0.60;;;-0.70;99.90;;;;;;4991979;28;20064;-62
2021/11/23 05:23:13;;;;;;;0.10;0.10;;;-0.70;99.90;;;;;;4993460;28;20070;-62
2021/11/23 05:25:39;;;;;;;0.30;0.30;;;-0.80;99.90;;;;;;4993630;28;20109;-62
2021/11/23 05:28:05;;;;;;;0.32;0.32;;;-0.70;99.90;;;;;;4959671;28;20046;-62
2021/11/23 05:30:30;;;;;;;0.57;0.57;;;-0.70;99.90;;;;;;5011704;28;20364;-63
2021/11/23 05:32:56;;;;;;;0.15;0.15;;;-0.70;99.90;;;;;;5011820;28;20034;-63
2021/11/23 05:35:22;;;;;;;0.10;0.10;;;-0.80;99.90;;;;;;5011671;28;20034;-63
2021/11/23 05:37:47;;;;;;;0.15;0.15;;;-0.80;99.90;;;;;;5012949;28;20131;-63
2021/11/23 05:40:13;;;;;;;1.77;1.42;;;-0.80;99.90;;;;;;5013005;28;20114;-62
2021/11/23 05:42:40;;;;;;;0.30;0.30;;;-0.80;99.90;;;;;;5011407;28;20462;-63
2021/11/23 05:45:08;;;;;;;8.75;1.83;;;-0.80;99.90;;;;;;5012175;28;20030;-63
2021/11/23 05:47:39;;;;;;;9.43;4.15;;;-0.80;99.90;;;;;;5012717;28;20100;-62
2021/11/23 05:50:06;;;;;;;1.67;1.58;;;-0.80;99.90;;;;;;5012698;28;20117;-62
2021/11/23 05:52:32;;;;;;;3.97;2.45;;;-0.80;99.90;;;;;;5011687;28;20038;-63
2021/11/23 05:54:58;;;;;;;0.10;0.10;;;-0.70;99.90;;;;;;5011593;28;20022;-63
2021/11/23 05:57:24;;;;;;;0.22;0.22;;;-0.70;99.90;;;;;;5011394;28;20117;-63
2021/11/23 05:59:50;;;;;;;0.10;0.10;;;-0.60;99.90;;;;;;5011709;28;20449;-63
2021/11/23 06:02:15;;;;;;;0.10;0.10;;;-0.50;99.90;;;;;;5012703;28;20038;-63
2021/11/23 06:04:42;;;;;;;0.10;0.10;;;-0.50;99.90;;;;;;5012556;28;20042;-63
2021/11/23 06:07:08;;;;;;;0.10;0.10;;;-0.50;99.90;;;;;;5012514;28;20092;-63
2021/11/23 06:09:33;;;;;;;0.10;0.10;;;-0.50;99.90;;;;;;5011290;28;20034;-63
2021/11/23 06:11:59;;;;;;;0.20;0.20;;;-0.50;99.90;;;;;;5012553;28;20398;-63
2021/11/23 06:14:25;;;;;;;0.10;0.10;;;-0.50;99.90;;;;;;5012589;28;20029;-62
2021/11/23 06:16:51;;;;;;;0.10;0.10;;;-0.50;99.90;;;;;;5011043;28;20117;-63
2021/11/23 06:19:17;;;;;;;0.10;0.10;;;-0.50;99.90;;;;;;5003926;28;20034;-63
2021/11/23 06:21:43;;;;;;;0.38;0.38;;;-0.50;99.90;;;;;;4992316;28;20042;-64
2021/11/23 06:24:10;;;;;;;0.40;0.40;;;-0.50;99.90;;;;;;4991285;28;20502;-62
2021/11/23 06:26:37;;;;;;;0.10;0.10;;;-0.50;99.90;;;;;;4992302;28;20039;-63
2021/11/23 06:29:04;;;;;;;0.10;0.10;;;-0.50;99.90;;;;;;4991355;28;20034;-63
2021/11/23 06:31:30;;;;;;;0.10;0.10;;;-0.40;99.90;;;;;;4992826;28;20030;-63
2021/11/23 06:33:58;;;;;;;0.68;0.68;;;-0.50;99.90;;;;;;4992862;28;20080;-62
2021/11/23 06:36:24;;;;;;;0.20;0.20;;;-0.50;99.90;;;;;;4992614;28;20037;-63
2021/11/23 06:38:51;;;;;;;0.10;0.10;;;-0.50;99.90;;;;;;4991337;28;20030;-62
2021/11/23 06:41:18;;;;;;;0.55;0.55;;;-0.50;99.90;;;;;;4992356;28;20399;-62
2021/11/23 06:43:45;;;;;;;0.40;0.40;;;-0.50;99.90;;;;;;4990922;28;20046;-63
2021/11/23 06:46:11;;;;;;;0.10;0.10;;;-0.50;99.90;;;;;;4991554;28;20062;-63
2021/11/23 06:48:37;;;;;;;0.10;0.10;;;-0.50;99.90;;;;;;4987303;28;20023;-64
2021/11/23 06:51:03;;;;;;;0.10;0.10;;;-0.50;99.90;;;;;;4992418;28;20030;-64
2021/11/23 06:53:29;;;;;;;0.10;0.10;;;-0.50;99.90;;;;;;4992240;28;20085;-64
2021/11/23 06:55:55;;;;;;;0.20;0.20;;;-0.50;99.90;;;;;;4994922;28;20026;-64
2021/11/23 06:58:21;;;;;;;1.40;1.33;;;-0.50;99.90;;;;;;4996301;28;20043;-64
2021/11/23 07:00:47;;;;;;;1.67;1.50;;;-0.50;99.90;;;;;;4995088;28;20041;-64
2021/11/23 07:03:14;;;;;;;0.10;0.10;;;-0.50;99.90;;;;;;4995808;28;20074;-64
2021/11/23 07:05:39;;;;;;;0.75;0.75;;;-0.60;99.90;;;;;;4996156;28;20034;-64
2021/11/23 07:08:05;;;;;;;0.10;0.10;;;-0.70;99.90;;;;;;4996119;28;20411;-65
2021/11/23 07:10:32;;;;;;;7.53;1.08;;;-0.60;99.90;;;;;;4996227;28;20445;-64
2021/11/23 07:12:58;;;;;;;0.20;0.20;;;-0.50;99.90;;;;;;4995950;28;20042;-63
2021/11/23 07:15:25;;;;;;;0.40;0.40;;;-0.50;99.90;;;;;;4995267;28;20033;-64
2021/11/23 07:17:50;;;;;;;0.25;0.25;;;-0.40;99.90;;;;;;4995212;28;20459;-65
2021/11/23 07:20:16;;;;;;;0.52;0.52;;;-0.50;99.90;;;;;;5011268;28;20057;-65
2021/11/23 07:22:42;;;;;;;1.17;1.08;;;-0.50;99.90;;;;;;5015447;28;20409;-71
2021/11/23 07:25:09;;;;;;;0.93;0.35;;;-0.40;99.90;;;;;;5013831;28;20033;-63
2021/11/23 07:27:34;;;;;;;0.10;0.10;;;-0.40;99.90;;;;;;5015066;28;20490;-63
2021/11/23 07:30:00;;;;;;;0.20;0.20;;;-0.40;99.90;;;;;;5013542;28;20033;-65
2021/11/23 07:32:26;;;;;;;0.10;0.10;;;-0.40;99.90;;;;;;5015241;28;20120;-63
2021/11/23 07:34:52;;;;;;;0.35;0.35;;;-0.30;99.90;;;;;;5015300;28;20034;-63
2021/11/23 07:37:18;;;;;;;0.10;0.10;;;-0.30;99.90;;;;;;5014204;28;20062;-63
2021/11/23 07:39:44;;;;;;;0.25;0.25;;;-0.30;99.90;;;;;;5014981;28;20030;-63
2021/11/23 07:42:10;;;;;;;0.17;0.17;;;-0.30;99.90;;;;;;5015367;28;20105;-62
2021/11/23 07:44:35;;;;;;;0.25;0.25;;;-0.30;99.90;;;;;;5013411;28;20056;-62
2021/11/23 07:47:01;;;;;;;0.10;0.10;;;-0.20;99.90;;;;;;5014658;28;20100;-64
2021/11/23 07:49:27;;;;;;;1.80;1.65;;;-0.20;99.90;;;;;;5015090;28;20026;-64
2021/11/23 07:51:53;;;;;;;2.55;1.00;;;-0.10;99.90;;;;;;5014806;28;20030;-64
2021/11/23 07:54:19;;;;;;;0.25;0.25;;;-0.10;99.90;;;;;;5014836;28;20026;-64
2021/11/23 07:56:44;;;;;;;0.13;0.13;;;-0.10;99.90;;;;;;5013283;28;20038;-63
2021/11/23 07:59:11;;;;;;;0.80;0.80;;;0.00;99.90;;;;;;5014960;28;20026;-63
2021/11/23 08:01:38;;;;;;;0.10;0.10;;;0.20;99.90;;;;;;5013609;28;20057;-64
2021/11/23 08:04:04;;;;;;;1.27;1.25;;;0.20;99.90;;;;;;5013668;28;20433;-64
2021/11/23 08:06:30;;;;;;;0.70;0.47;;;0.20;99.90;;;;;;5013905;28;20525;-64
2021/11/23 08:08:56;;;;;;;0.10;0.10;;;0.20;99.90;;;;;;5014479;28;20045;-63
2021/11/23 08:11:22;;;;;;;0.10;0.10;;;0.30;99.90;;;;;;5013487;28;20040;-63
2021/11/23 08:13:48;;;;;;;0.98;0.65;;;0.30;99.90;;;;;;5014582;28;20030;-63
2021/11/23 08:16:14;;;;;;;0.10;0.10;;;0.30;99.90;;;;;;5013361;28;20036;-63
2021/11/23 08:18:39;;;;;;;0.10;0.10;;;0.30;99.90;;;;;;5013167;28;20033;-63
2021/11/23 08:21:05;;;;;;;0.10;0.10;;;0.40;99.90;;;;;;5014606;28;20072;-63
2021/11/23 08:23:32;;;;;;;0.28;0.28;;;0.40;99.90;;;;;;5012922;28;20057;-62
2021/11/23 08:25:58;;;;;;;0.57;0.57;;;0.50;99.90;;;;;;5013936;28;20469;-63
2021/11/23 08:28:26;;;;;;;0.20;0.20;;;0.50;99.90;;;;;;5014119;28;20026;-63
2021/11/23 08:30:55;;;;;;;0.10;0.10;;;0.60;99.90;;;;;;5014008;28;20040;-63
2021/11/23 08:33:21;;;;;;;0.40;0.40;;;0.60;99.90;;;;;;4996998;28;20105;-63
2021/11/23 08:35:47;;;;;;;1.42;1.35;;;0.70;99.90;;;;;;5013703;28;20034;-63
2021/11/23 08:38:13;;;;;;;0.10;0.10;;;0.70;99.90;;;;;;4996479;28;20038;-63
2021/11/23 08:40:39;;;;;;;0.00;0.00;;;0.80;99.90;;;;;;5013812;28;20076;-63
2021/11/23 08:43:07;;;;;;;1.02;1.02;;;0.90;99.90;;;;;;5012741;28;20041;-63
2021/11/23 08:45:33;;;;;;;0.22;0.22;;;0.90;99.90;;;;;;5012366;28;20164;-63
2021/11/23 08:47:59;;;;;;;0.00;0.00;;;1.00;99.90;;;;;;5013928;28;20117;-64
2021/11/23 08:50:26;;;;;;;0.20;0.20;;;1.10;99.90;;;;;;5013792;28;20091;-63
2021/11/23 08:52:52;;;;;;;0.10;0.10;;;1.10;99.90;;;;;;5013385;28;20045;-63
2021/11/23 08:55:17;;;;;;;0.13;0.13;;;1.20;99.90;;;;;;5014064;28;20034;-63
2021/11/23 08:57:43;;;;;;;0.10;0.10;;;1.30;99.90;;;;;;5013445;28;20037;-63
2021/11/23 09:00:14;;;;;;;1.08;0.98;;;1.40;99.90;;;;;;5012341;28;20386;-63
2021/11/23 09:02:42;;;;;;;0.20;0.20;;;1.40;99.90;;;;;;5013426;28;20445;-63
2021/11/23 09:05:10;;;;;;;0.00;0.00;;;1.50;99.90;;;;;;5013486;28;20041;-63
2021/11/23 09:07:38;;;;;;;0.10;0.10;;;1.60;99.90;;;;;;5013184;28;20049;-63
2021/11/23 09:10:05;;;;;;;0.30;0.30;;;1.70;99.90;;;;;;5009194;28;20046;-63
2021/11/23 09:12:31;;;;;;;1.33;1.23;;;1.80;99.90;;;;;;5013145;28;20065;-64
2021/11/23 09:14:57;;;;;;;0.10;0.10;;;1.90;99.90;;;;;;4998586;28;20132;-64
2021/11/23 09:17:23;;;;;;;0.10;0.10;;;2.10;99.90;;;;;;4993663;28;20490;-64
2021/11/23 09:19:49;;;;;;;0.73;0.65;;;2.10;99.90;;;;;;4992370;28;20036;-65
2021/11/23 09:22:15;;;;;;;0.08;0.08;;;2.30;99.90;;;;;;4993674;28;20070;-64
2021/11/23 09:24:41;;;;;;;0.10;0.10;;;2.40;99.90;;;;;;4993599;28;20073;-64
2021/11/23 09:27:07;;;;;;;0.10;0.10;;;2.50;99.90;;;;;;4992300;28;20034;-64
2021/11/23 09:29:33;;;;;;;0.88;0.88;;;2.60;99.90;;;;;;4993506;28;20129;-64
2021/11/23 09:31:59;;;;;;;0.65;0.52;;;2.70;99.90;;;;;;4993666;28;20375;-64
2021/11/23 09:34:25;;;;;;;0.73;0.73;;;2.80;99.90;;;;;;4992014;28;20085;-64
2021/11/23 09:36:52;;;;;;;0.10;0.10;;;2.90;99.90;;;;;;4993277;28;20479;-64
2021/11/23 09:39:18;;;;;;;0.10;0.10;;;3.10;99.90;;;;;;4992194;28;20050;-64
2021/11/23 09:41:44;;;;;;;0.10;0.10;;;3.30;99.90;;;;;;4993435;28;20034;-63
2021/11/23 09:44:10;;;;;;;0.00;0.00;;;3.90;99.90;;;;;;4991896;28;20073;-64
2021/11/23 09:46:39;;;;;;;0.60;0.60;;;5.10;99.90;;;;;;4992928;28;20479;-64
2021/11/23 09:49:08;;;;;;;0.38;0.38;;;6.10;99.90;;;;;;4993105;28;20077;-64
2021/11/23 09:51:35;;;;;;;0.03;0.03;;;7.60;99.90;;;;;;4993318;28;20092;-64
2021/11/23 09:54:07;;;;;;;0.10;0.10;;;8.70;99.90;;;;;;4993312;28;20023;-65
2021/11/23 09:56:35;;;;;;;0.10;0.10;;;9.70;99.90;;;;;;4993044;28;20125;-65
2021/11/23 09:59:01;;;;;;;0.20;0.20;;;10.20;99.90;;;;;;4993103;28;20066;-65
2021/11/23 10:01:45;;;;;;;0.10;0.10;;;10.60;99.90;;;;;;4992977;28;20034;-65
2021/11/23 10:04:10;;;;;;;4.20;0.65;;;11.20;97.70;;;;;;4993029;28;20569;-65
2021/11/23 10:06:53;;;;;;;0.20;0.20;;;11.80;95.50;;;;;;4992785;28;20038;-65
2021/11/23 10:09:41;;;;;;;0.47;0.45;;;12.00;94.60;;;;;;4992753;28;20038;-65
2021/11/23 10:12:24;;;;;;;0.52;0.43;;;12.40;93.60;;;;;;4993059;28;20035;-65
2021/11/23 10:15:20;;;;;;;0.45;0.45;;;13.10;91.50;;;;;;4991416;28;20045;-65
2021/11/23 10:17:50;;;;;;;0.00;0.00;;;13.70;90.20;;;;;;4992050;28;20066;-65
2021/11/23 10:20:49;;;;;;;0.32;0.32;;;14.20;85.40;;;;;;4992898;28;20065;-65
2021/11/23 10:23:21;;;;;;;1.45;0.47;;;15.10;83.40;;;;;;4991676;28;20038;-65
2021/11/23 10:26:14;;;;;;;0.00;0.00;;;15.10;79.70;;;;;;4991372;28;20045;-65
2021/11/23 10:28:44;;;;;;;0.20;0.20;;;15.50;77.80;;;;;;4992561;28;20036;-64
2021/11/23 10:31:13;;;;;;;0.20;0.20;;;16.10;74.20;;;;;;4996099;28;20042;-64
2021/11/23 10:33:42;;;;;;;9.98;1.38;;;15.90;73.20;;;;;;4996749;28;20030;-65
2021/11/23 10:36:13;;;;;;;0.32;0.32;;;16.70;72.20;;;;;;4995362;28;20052;-65
2021/11/23 10:38:40;;;;;;;0.10;0.10;;;16.50;70.20;;;;;;4996527;28;20482;-65
2021/11/23 10:41:14;;;;;;;0.00;0.00;;;15.80;70.60;;;;;;4995319;28;20031;-64
2021/11/23 10:43:42;;;;;;;0.10;0.10;;;16.60;70.00;;;;;;4995881;28;20046;-64
2021/11/23 10:46:18;;;;;;;0.10;0.10;;;17.40;68.30;;;;;;4995047;28;20108;-65
2021/11/23 10:48:57;;;;;;;0.00;0.00;;;16.60;65.90;;;;;;4995387;28;20022;-62
2021/11/23 10:51:25;;;;;;;0.38;0.35;;;15.80;69.20;;;;;;4997171;28;20112;-61
2021/11/23 10:54:10;;;;;;;0.05;0.05;;;16.40;68.40;;;;;;4995726;28;20054;-64
2021/11/23 10:57:01;;;;;;;0.00;0.00;;;17.60;66.70;;;;;;4995295;28;20044;-64
2021/11/23 10:59:27;;;;;;;0.00;0.00;;;17.90;65.30;;;;;;4996185;28;20030;-64
2021/11/23 11:01:55;;;;;;;0.93;0.73;;;17.40;64.90;;;;;;4995020;28;20099;-65
2021/11/23 11:04:22;;;;;;;0.00;0.00;;;17.40;65.70;;;;;;4996362;28;20057;-65
2021/11/23 11:06:49;;;;;;;0.55;0.55;;;15.30;66.40;;;;;;4994788;28;20085;-65
2021/11/23 11:09:20;;;;;;;0.43;0.30;;;12.60;74.00;;;;;;4996303;28;20463;-65
2021/11/23 11:11:45;;;;;;;0.20;0.20;;;13.20;74.00;;;;;;4994381;28;20043;-65
2021/11/23 11:14:14;;;;;;;0.00;0.00;;;14.60;72.40;;;;;;4995863;28;20040;-64
2021/11/23 11:16:41;;;;;;;0.00;0.00;;;14.00;69.10;;;;;;4995850;28;20034;-72
2021/11/23 11:19:16;;;;;;;0.05;0.05;;;14.70;70.40;;;;;;4996996;28;20491;-68
2021/11/23 11:21:54;;;;;;;0.13;0.13;;;16.50;66.50;;;;;;4995844;28;20049;-73
2021/11/23 11:24:31;;;;;;;0.85;0.75;;;14.90;66.40;;;;;;4995561;28;20076;-64
2021/11/23 11:27:15;;;;;;;0.00;0.00;;;16.50;67.00;;;;;;4979194;28;20041;-64
2021/11/23 11:29:43;;;;;;;0.10;0.10;;;15.40;65.00;;;;;;4994911;28;20030;-64
2021/11/23 11:32:35;;;;;;;0.13;0.13;;;14.80;69.20;;;;;;4994687;28;20097;-64
2021/11/23 11:35:26;;;;;;;0.15;0.15;;;14.00;70.00;;;;;;4994579;28;20113;-65
2021/11/23 11:37:56;;;;;;;0.00;0.00;;;15.90;67.80;;;;;;4995346;28;20033;-64
2021/11/23 11:40:35;;;;;;;0.00;0.00;;;17.20;64.20;;;;;;4995822;28;20053;-63
2021/11/23 11:43:05;;;;;;;;;;;17.40;63.30;;;;;;4993783;28;20053;-63
2021/11/23 11:45:47;;;;;;;0.08;0.08;;;17.20;61.10;;;;;;4994122;28;19918;-63
2021/11/23 11:48:25;;;;;;;0.00;0.00;;;16.70;63.60;;;;;;4995414;28;20037;-63
2021/11/23 11:51:17;;;;;;;0.00;0.00;;;17.60;62.10;;;;;;4995290;28;20030;-64
2021/11/23 11:53:49;;;;;;;0.00;0.00;;;16.50;61.90;;;;;;4994956;28;20092;-64
2021/11/23 11:56:52;;;;;;;0.10;0.10;;;16.90;64.20;;;;;;4994377;28;20061;-64
2021/11/23 11:59:17;;;;;;;0.30;0.20;;;18.30;61.90;;;;;;4992698;28;20038;-64
2021/11/23 12:01:55;;;;;;;0.75;0.55;;;16.60;62.00;;;;;;4994698;28;20050;-64
2021/11/23 12:04:26;;;;;;;0.13;0.10;;;18.00;60.80;;;;;;4995267;28;20076;-63
2021/11/23 12:07:00;;;;;;;0.00;0.00;;;16.50;61.60;;;;;;4994006;28;20380;-64
2021/11/23 12:09:51;;;;;;;0.00;0.00;;;17.60;61.20;;;;;;4995195;28;20475;-64
2021/11/23 12:12:39;;;;;;;0.00;0.00;;;14.30;61.70;;;;;;4994511;28;20069;-63
2021/11/23 12:15:17;;;;;;;0.00;0.00;;;15.70;63.00;;;;;;4994010;28;20414;-64
2021/11/23 12:18:10;;;;;;;0.00;0.00;;;17.10;62.70;;;;;;4993887;28;20030;-64
2021/11/23 12:21:00;;;;;;;0.00;0.00;;;17.20;60.90;;;;;;4994905;28;20088;-64
2021/11/23 12:23:37;;;;;;;0.08;0.08;;;17.10;60.00;;;;;;4994647;28;20042;-64
2021/11/23 12:26:14;;;;;;;0.00;0.00;;;15.50;64.50;;;;;;4994600;28;20030;-64
2021/11/23 12:28:51;;;;;;;2.08;1.55;;;15.50;63.30;;;;;;4994724;28;20042;-63
2021/11/23 12:31:17;;;;;;;0.00;0.00;;;16.20;61.80;;;;;;4993371;28;20475;-63
2021/11/23 12:33:51;;;;;;;0.00;0.00;;;15.10;61.70;;;;;;4994334;28;20030;-63
2021/11/23 12:36:22;;;;;;;0.00;0.00;;;15.20;63.40;;;;;;4994730;28;20046;-64
2021/11/23 12:38:51;;;;;;;0.00;0.00;;;15.40;63.40;;;;;;4994471;28;20368;-63
2021/11/23 12:41:24;;;;;;;0.00;0.00;;;14.30;64.90;;;;;;4994581;28;20090;-63
2021/11/23 12:43:53;;;;;;;0.05;0.05;;;13.20;65.90;;;;;;4993888;28;20051;-64
2021/11/23 12:46:23;;;;;;;0.00;0.00;;;13.70;67.60;;;;;;4994103;28;20041;-64
2021/11/23 12:48:52;;;;;;;0.00;0.00;;;13.80;66.60;;;;;;4994536;28;20026;-63
2021/11/23 12:51:24;;;;;;;0.15;0.15;;;12.70;67.10;;;;;;4993964;28;20038;-64
2021/11/23 12:54:04;;;;;;;0.17;0.17;;;11.80;70.80;;;;;;4992320;28;20105;-63
2021/11/23 12:56:51;;;;;;;0.28;0.28;;;12.90;71.00;;;;;;4994084;28;20034;-63